createdAt,value
2023-05-09T00:00:06.298Z,98510.19
2023-05-09T00:02:34.653Z,98511.88
2023-05-09T00:05:02.940Z,98512.94
2023-05-09T00:07:31.263Z,98509.38
2023-05-09T00:09:58.760Z,98500.44
2023-05-09T00:12:29.706Z,98500.63
2023-05-09T00:14:58.133Z,98498.63
2023-05-09T00:17:25.666Z,98501.41
2023-05-09T00:19:55.972Z,98497.84
2023-05-09T00:22:23.079Z,98495.16
2023-05-09T00:24:50.836Z,98502.72
2023-05-09T00:27:18.041Z,98501.09
2023-05-09T00:29:45.353Z,98497.50
2023-05-09T00:32:12.492Z,98495.28
2023-05-09T00:34:39.582Z,98490.72
2023-05-09T00:37:07.167Z,98477.66
2023-05-09T00:39:34.146Z,98482.06
2023-05-09T00:42:01.189Z,98476.22
2023-05-09T00:44:28.324Z,98474.59
2023-05-09T00:46:55.651Z,98467.03
2023-05-09T00:49:23.006Z,98468.63
2023-05-09T00:51:51.799Z,98472.47
2023-05-09T00:54:19.102Z,98469.66
2023-05-09T00:56:46.785Z,98464.50
2023-05-09T00:59:14.229Z,98460.97
2023-05-09T01:01:42.682Z,98457.56
2023-05-09T01:04:10.974Z,98450.59
2023-05-09T01:07:03.024Z,98449.16
2023-05-09T01:09:40.524Z,98447.44
2023-05-09T01:12:16.868Z,98441.13
2023-05-09T01:15:15.650Z,98440.47
2023-05-09T01:18:21.908Z,98443.34
2023-05-09T01:21:08.773Z,98440.69
2023-05-09T01:23:44.718Z,98440.22
2023-05-09T01:26:47.129Z,98435.22
2023-05-09T01:29:35.491Z,98446.16
2023-05-09T01:32:15.569Z,98447.50
2023-05-09T01:34:45.319Z,98444.38
2023-05-09T01:37:16.340Z,98444.94
2023-05-09T01:39:49.902Z,98441.09
2023-05-09T01:42:20.717Z,98446.09
2023-05-09T01:44:49.294Z,98444.94
2023-05-09T01:47:18.460Z,98446.16
2023-05-09T01:49:47.927Z,98445.00
2023-05-09T01:52:19.302Z,98443.47
2023-05-09T01:54:47.363Z,98438.94
2023-05-09T01:57:15.632Z,98439.91
2023-05-09T01:59:45.433Z,98434.63
2023-05-09T02:02:13.069Z,98443.84
2023-05-09T02:04:42.725Z,98445.66
2023-05-09T02:07:10.803Z,98437.19
2023-05-09T02:09:38.142Z,98443.78
2023-05-09T02:12:05.854Z,98437.34
2023-05-09T02:14:33.097Z,98432.56
2023-05-09T02:17:06.350Z,98430.56
2023-05-09T02:19:35.852Z,98435.22
2023-05-09T02:22:05.151Z,98430.34
2023-05-09T02:24:36.487Z,98435.72
2023-05-09T02:27:05.475Z,98424.50
2023-05-09T02:29:40.793Z,98430.09
2023-05-09T02:32:16.563Z,98429.03
2023-05-09T02:34:45.171Z,98419.63
2023-05-09T02:37:12.613Z,98426.78
2023-05-09T02:39:39.777Z,98426.69
2023-05-09T02:42:10.301Z,98424.16
2023-05-09T02:44:38.802Z,98421.03
2023-05-09T02:47:07.554Z,98412.75
2023-05-09T02:49:35.102Z,98420.56
2023-05-09T02:52:04.259Z,98417.00
2023-05-09T02:54:31.494Z,98414.47
2023-05-09T02:56:59.281Z,98411.06
2023-05-09T02:59:26.742Z,98415.09
2023-05-09T03:01:54.347Z,98409.78
2023-05-09T03:04:22.153Z,98407.94
2023-05-09T03:06:49.643Z,98407.22
2023-05-09T03:09:16.851Z,98397.66
2023-05-09T03:11:44.075Z,98400.56
2023-05-09T03:14:14.913Z,98397.28
2023-05-09T03:16:42.375Z,98389.63
2023-05-09T03:19:19.338Z,98393.44
2023-05-09T03:21:46.494Z,98397.75
2023-05-09T03:24:13.720Z,98393.56
2023-05-09T03:26:40.768Z,98396.00
2023-05-09T03:29:08.190Z,98391.84
2023-05-09T03:31:36.053Z,98396.97
2023-05-09T03:34:03.147Z,98389.72
2023-05-09T03:36:31.846Z,98396.28
2023-05-09T03:39:00.006Z,98388.56
2023-05-09T03:41:27.184Z,98375.50
2023-05-09T03:43:54.663Z,98372.47
2023-05-09T03:46:21.721Z,98375.41
2023-05-09T03:48:49.803Z,98368.75
2023-05-09T03:51:17.566Z,98363.25
2023-05-09T03:53:47.093Z,98362.22
2023-05-09T03:56:15.259Z,98366.41
2023-05-09T03:58:48.173Z,98363.38
2023-05-09T04:03:44.328Z,98360.94
2023-05-09T04:06:13.490Z,98364.78
2023-05-09T04:08:43.735Z,98375.66
2023-05-09T04:11:10.818Z,98368.38
2023-05-09T04:13:40.581Z,98376.94
2023-05-09T04:16:20.624Z,98368.78
2023-05-09T04:18:47.790Z,98372.28
2023-05-09T04:21:16.114Z,98378.44
2023-05-09T04:23:45.853Z,98366.66
2023-05-09T04:26:14.144Z,98363.59
2023-05-09T04:28:42.945Z,98372.38
2023-05-09T04:31:12.957Z,98368.06
2023-05-09T04:33:40.566Z,98367.94
2023-05-09T04:36:08.068Z,98380.41
2023-05-09T04:38:36.016Z,98379.47
2023-05-09T04:41:06.554Z,98373.84
2023-05-09T04:43:33.898Z,98371.56
2023-05-09T04:46:04.305Z,98369.63
2023-05-09T04:48:32.893Z,98379.03
2023-05-09T04:51:00.308Z,98381.34
2023-05-09T04:53:28.312Z,98375.41
2023-05-09T04:55:56.616Z,98382.88
2023-05-09T04:58:25.728Z,98391.13
2023-05-09T05:00:53.742Z,98390.78
2023-05-09T05:03:20.837Z,98382.63
2023-05-09T05:05:48.425Z,98388.34
2023-05-09T05:08:15.793Z,98388.78
2023-05-09T05:10:44.221Z,98385.56
2023-05-09T05:13:13.954Z,98382.59
2023-05-09T05:15:45.485Z,98387.84
2023-05-09T05:18:14.138Z,98387.50
2023-05-09T05:20:42.666Z,98388.25
2023-05-09T05:23:10.355Z,98383.91
2023-05-09T05:25:38.307Z,98384.59
2023-05-09T05:28:06.032Z,98386.47
2023-05-09T05:30:34.372Z,98389.97
2023-05-09T05:33:02.825Z,98381.00
2023-05-09T05:35:31.082Z,98385.44
2023-05-09T05:37:58.359Z,98376.94
2023-05-09T05:40:26.406Z,98374.38
2023-05-09T05:42:55.522Z,98369.09
2023-05-09T05:45:23.548Z,98366.91
2023-05-09T05:47:56.244Z,98373.19
2023-05-09T05:50:24.789Z,98366.94
2023-05-09T05:52:52.682Z,98366.66
2023-05-09T05:55:19.878Z,98361.69
2023-05-09T05:57:47.764Z,98360.59
2023-05-09T06:00:16.913Z,98356.06
2023-05-09T06:02:50.576Z,98347.78
2023-05-09T06:05:26.507Z,98350.38
2023-05-09T06:07:54.039Z,98346.63
2023-05-09T06:10:21.200Z,98338.69
2023-05-09T06:12:48.390Z,98344.06
2023-05-09T06:15:15.664Z,98334.59
2023-05-09T06:17:46.328Z,98337.44
2023-05-09T06:20:13.317Z,98329.50
2023-05-09T06:22:40.390Z,98336.72
2023-05-09T06:25:10.354Z,98329.69
2023-05-09T06:27:38.389Z,98324.34
2023-05-09T06:30:23.856Z,98324.69
2023-05-09T06:32:53.469Z,98317.63
2023-05-09T06:35:21.182Z,98315.63
2023-05-09T06:37:49.007Z,98313.41
2023-05-09T06:40:17.369Z,98318.47
2023-05-09T06:42:45.166Z,98311.06
2023-05-09T06:45:12.586Z,98302.44
2023-05-09T06:47:39.868Z,98304.13
2023-05-09T06:50:08.002Z,98297.78
2023-05-09T06:52:34.971Z,98295.47
2023-05-09T06:55:02.037Z,98300.72
2023-05-09T06:57:29.209Z,98294.19
2023-05-09T06:59:56.771Z,98296.13
2023-05-09T07:02:23.972Z,98292.34
2023-05-09T07:04:51.145Z,98284.03
2023-05-09T07:07:18.208Z,98287.91
2023-05-09T07:09:45.787Z,98276.22
2023-05-09T07:12:12.823Z,98280.41
2023-05-09T07:14:44.189Z,98279.75
2023-05-09T07:17:21.691Z,98277.38
2023-05-09T07:19:50.983Z,98276.69
2023-05-09T07:22:18.050Z,98272.63
2023-05-09T07:24:46.851Z,98269.00
2023-05-09T07:27:14.091Z,98275.25
2023-05-09T07:29:41.074Z,98279.38
2023-05-09T07:32:08.531Z,98271.41
2023-05-09T07:34:36.445Z,98274.81
2023-05-09T07:37:03.706Z,98265.88
2023-05-09T07:39:31.222Z,98263.09
2023-05-09T07:41:58.567Z,98255.78
2023-05-09T07:44:25.987Z,98247.34
2023-05-09T07:46:55.399Z,98238.09
2023-05-09T07:49:22.831Z,98238.13
2023-05-09T07:51:50.133Z,98236.38
2023-05-09T07:54:17.338Z,98231.00
2023-05-09T07:56:44.325Z,98229.78
2023-05-09T07:59:12.295Z,98223.31
2023-05-09T08:01:39.660Z,98218.56
2023-05-09T08:04:08.941Z,98210.34
2023-05-09T08:06:36.704Z,98199.31
2023-05-09T08:09:04.719Z,98200.03
2023-05-09T08:11:36.344Z,98198.25
2023-05-09T08:14:03.558Z,98194.38
2023-05-09T08:16:30.969Z,98187.78
2023-05-09T08:18:58.198Z,98181.88
2023-05-09T08:21:25.367Z,98181.41
2023-05-09T08:23:52.952Z,98177.66
2023-05-09T08:26:20.009Z,98182.03
2023-05-09T08:28:47.126Z,98183.00
2023-05-09T08:31:16.476Z,98167.69
2023-05-09T08:33:43.438Z,98167.91
2023-05-09T08:36:11.033Z,98166.25
2023-05-09T08:38:40.498Z,98167.09
2023-05-09T08:41:07.509Z,98165.25
2023-05-09T08:43:38.710Z,98163.06
2023-05-09T08:46:11.142Z,98155.84
2023-05-09T08:48:38.973Z,98158.78
2023-05-09T08:51:07.552Z,98155.13
2023-05-09T08:53:34.975Z,98148.13
2023-05-09T08:56:03.893Z,98134.47
2023-05-09T08:58:32.271Z,98135.63
2023-05-09T09:00:59.663Z,98130.03
2023-05-09T09:03:27.296Z,98123.19
2023-05-09T09:05:55.223Z,98119.47
2023-05-09T09:08:23.126Z,98116.56
2023-05-09T09:10:50.650Z,98115.19
2023-05-09T09:13:18.444Z,98114.34
2023-05-09T09:15:47.119Z,98116.69
2023-05-09T09:18:23.569Z,98112.88
2023-05-09T09:20:57.894Z,98104.66
2023-05-09T09:23:26.749Z,98105.06
2023-05-09T09:26:07.027Z,98098.31
2023-05-09T09:28:34.288Z,98095.31
2023-05-09T09:31:02.464Z,98083.25
2023-05-09T09:33:30.229Z,98092.34
2023-05-09T09:35:57.735Z,98088.00
2023-05-09T09:38:25.356Z,98095.84
2023-05-09T09:40:52.321Z,98092.41
2023-05-09T09:43:19.749Z,98082.69
2023-05-09T09:45:53.087Z,98080.97
2023-05-09T09:48:36.356Z,98078.25
2023-05-09T09:51:11.385Z,98067.19
2023-05-09T09:53:43.525Z,98063.41
2023-05-09T09:56:11.093Z,98062.06
2023-05-09T09:58:38.185Z,98062.34
2023-05-09T10:01:20.832Z,98060.72
2023-05-09T10:03:48.195Z,98060.69
2023-05-09T10:06:16.719Z,98060.69
2023-05-09T10:08:49.314Z,98046.94
2023-05-09T10:11:16.545Z,98050.47
2023-05-09T10:13:44.589Z,98039.94
2023-05-09T10:16:13.000Z,98044.53
2023-05-09T10:18:42.898Z,98041.22
2023-05-09T10:21:14.772Z,98039.41
2023-05-09T10:23:47.386Z,98032.16
2023-05-09T10:26:25.617Z,98023.75
2023-05-09T10:28:56.730Z,98025.09
2023-05-09T10:31:27.298Z,98022.53
2023-05-09T10:33:55.929Z,98016.94
2023-05-09T10:36:26.227Z,98014.25
2023-05-09T10:38:56.637Z,98007.72
2023-05-09T10:41:24.157Z,97990.44
2023-05-09T10:43:51.824Z,97991.09
2023-05-09T10:46:19.012Z,97989.50
2023-05-09T10:48:48.132Z,97983.78
2023-05-09T10:51:16.469Z,97978.66
2023-05-09T10:53:51.652Z,97971.63
2023-05-09T10:56:35.936Z,97964.94
2023-05-09T10:59:03.184Z,97970.59
2023-05-09T11:01:35.359Z,97955.28
2023-05-09T11:04:10.532Z,97959.28
2023-05-09T11:06:45.406Z,97949.75
2023-05-09T11:09:33.176Z,97935.56
2023-05-09T11:12:11.469Z,97940.66
2023-05-09T11:14:45.896Z,97927.97
2023-05-09T11:17:30.625Z,97933.38
2023-05-09T11:20:05.622Z,97924.88
2023-05-09T11:22:39.881Z,97927.75
2023-05-09T11:25:13.447Z,97919.94
2023-05-09T11:27:48.970Z,97909.94
2023-05-09T11:30:19.652Z,97908.16
2023-05-09T11:32:51.577Z,97914.94
2023-05-09T11:35:21.978Z,97910.03
2023-05-09T11:38:06.299Z,97906.22
2023-05-09T11:40:34.806Z,97892.38
2023-05-09T11:43:02.204Z,97888.09
2023-05-09T11:45:33.619Z,97886.03
2023-05-09T11:48:01.250Z,97883.91
2023-05-09T11:50:28.784Z,97884.19
2023-05-09T11:52:56.020Z,97876.81
2023-05-09T11:55:23.228Z,97872.00
2023-05-09T11:57:54.505Z,97855.69
2023-05-09T12:00:24.138Z,97865.00
2023-05-09T12:02:52.735Z,97861.06
2023-05-09T12:05:22.771Z,97858.44
2023-05-09T12:07:50.031Z,97849.31
2023-05-09T12:10:23.117Z,97836.50
2023-05-09T12:12:53.455Z,97847.25
2023-05-09T12:15:21.815Z,97839.16
2023-05-09T12:18:05.871Z,97836.75
2023-05-09T12:20:48.140Z,97828.13
2023-05-09T12:23:15.650Z,97828.19
2023-05-09T12:25:56.827Z,97821.69
2023-05-09T12:28:25.659Z,97822.88
2023-05-09T12:30:54.132Z,97818.97
2023-05-09T12:33:22.276Z,97816.16
2023-05-09T12:36:06.123Z,97817.63
2023-05-09T12:38:33.782Z,97801.81
2023-05-09T12:41:10.716Z,97801.09
2023-05-09T12:43:49.291Z,97796.13
2023-05-09T12:46:20.745Z,97795.59
2023-05-09T12:48:49.337Z,97787.63
2023-05-09T12:51:21.697Z,97788.75
2023-05-09T12:53:49.152Z,97786.69
2023-05-09T12:56:18.700Z,97779.06
2023-05-09T12:58:54.562Z,97778.25
2023-05-09T13:01:27.978Z,97767.72
2023-05-09T13:04:05.961Z,97764.50
2023-05-09T13:06:33.586Z,97760.88
2023-05-09T13:09:02.371Z,97753.97
2023-05-09T13:11:30.009Z,97755.47
2023-05-09T13:13:57.515Z,97753.81
2023-05-09T13:16:25.081Z,97749.94
2023-05-09T13:18:52.102Z,97734.19
2023-05-09T13:21:19.565Z,97735.50
2023-05-09T13:23:46.522Z,97734.78
2023-05-09T13:26:13.778Z,97723.41
2023-05-09T13:28:40.909Z,97720.00
2023-05-09T13:31:08.456Z,97714.84
2023-05-09T13:33:35.511Z,97712.16
2023-05-09T13:36:02.623Z,97707.63
2023-05-09T13:38:35.370Z,97702.00
2023-05-09T13:41:02.761Z,97698.13
2023-05-09T13:43:30.306Z,97700.84
2023-05-09T13:45:57.309Z,97697.44
2023-05-09T13:48:24.460Z,97687.84
2023-05-09T13:50:51.605Z,97681.72
2023-05-09T13:53:18.706Z,97680.88
2023-05-09T13:55:46.338Z,97676.78
2023-05-09T13:58:13.458Z,97673.56
2023-05-09T14:00:40.711Z,97673.19
2023-05-09T14:03:07.952Z,97656.94
2023-05-09T14:05:35.131Z,97662.88
2023-05-09T14:08:02.142Z,97654.56
2023-05-09T14:10:29.443Z,97650.34
2023-05-09T14:12:56.969Z,97646.63
2023-05-09T14:15:24.179Z,97646.31
2023-05-09T14:17:51.296Z,97645.59
2023-05-09T14:20:18.706Z,97637.22
2023-05-09T14:22:46.558Z,97639.34
2023-05-09T14:25:13.581Z,97628.09
2023-05-09T14:27:40.579Z,97624.84
2023-05-09T14:30:08.692Z,97616.22
2023-05-09T14:32:35.718Z,97611.28
2023-05-09T14:35:02.803Z,97608.56
2023-05-09T14:37:30.308Z,97613.78
2023-05-09T14:39:57.410Z,97610.97
2023-05-09T14:42:24.568Z,97607.44
2023-05-09T14:44:51.552Z,97602.28
2023-05-09T14:47:18.633Z,97597.06
2023-05-09T14:49:45.644Z,97597.91
2023-05-09T14:52:13.716Z,97593.44
2023-05-09T14:54:41.213Z,97584.66
2023-05-09T14:57:08.428Z,97581.22
2023-05-09T14:59:37.078Z,97579.13
2023-05-09T15:02:04.566Z,97582.31
2023-05-09T15:04:31.752Z,97569.91
2023-05-09T15:06:59.410Z,97579.66
2023-05-09T15:09:26.855Z,97563.88
2023-05-09T15:11:55.199Z,97571.22
2023-05-09T15:14:22.323Z,97564.69
2023-05-09T15:16:51.761Z,97566.75
2023-05-09T15:19:19.184Z,97566.22
2023-05-09T15:21:46.380Z,97583.19
2023-05-09T15:24:13.403Z,97592.59
2023-05-09T15:26:40.415Z,97611.19
2023-05-09T15:29:07.955Z,97598.78
2023-05-09T15:31:36.454Z,97598.53
2023-05-09T15:34:04.392Z,97621.13
2023-05-09T15:36:33.822Z,97613.78
2023-05-09T15:39:00.912Z,97595.91
2023-05-09T15:41:28.748Z,62700.25
2023-05-09T15:43:56.389Z,62700.25
2023-05-09T15:46:29.966Z,62700.25
2023-05-09T15:48:58.403Z,62700.25
2023-05-09T15:51:25.796Z,62700.25
2023-05-09T15:53:55.169Z,97598.34
2023-05-09T15:56:22.295Z,97598.28
2023-05-09T15:58:49.295Z,97592.91
2023-05-09T16:01:16.424Z,97590.34
2023-05-09T16:03:43.596Z,97575.69
2023-05-09T16:06:13.193Z,97577.41
2023-05-09T16:08:40.187Z,97568.91
2023-05-09T16:11:07.290Z,97574.53
2023-05-09T16:13:36.051Z,97562.91
2023-05-09T16:16:03.794Z,97555.28
2023-05-09T16:18:31.555Z,97560.25
2023-05-09T16:20:59.619Z,97554.44
2023-05-09T16:23:26.808Z,97551.28
2023-05-09T16:25:53.895Z,97549.94
2023-05-09T16:28:23.456Z,97548.81
2023-05-09T16:30:51.581Z,97547.28
2023-05-09T16:33:18.730Z,97544.56
2023-05-09T16:35:45.809Z,97536.59
2023-05-09T16:38:13.233Z,97528.13
2023-05-09T16:40:40.587Z,97519.06
2023-05-09T16:43:07.914Z,97513.09
2023-05-09T16:45:35.078Z,97510.03
2023-05-09T16:48:02.585Z,97499.97
2023-05-09T16:50:29.842Z,97496.38
2023-05-09T16:52:57.256Z,97500.00
2023-05-09T16:55:24.403Z,97488.97
2023-05-09T16:57:52.534Z,97486.66
2023-05-09T17:00:20.099Z,97488.75
2023-05-09T17:02:47.547Z,97483.25
2023-05-09T17:05:16.030Z,97483.38
2023-05-09T17:07:45.845Z,97474.81
2023-05-09T17:10:13.124Z,97468.72
2023-05-09T17:12:40.389Z,97478.50
2023-05-09T17:15:08.749Z,97467.13
2023-05-09T17:17:36.114Z,97479.44
2023-05-09T17:20:04.407Z,97487.50
2023-05-09T17:22:32.007Z,97506.19
2023-05-09T17:24:59.341Z,97532.94
2023-05-09T17:27:27.122Z,97524.53
2023-05-09T17:29:55.429Z,97511.41
2023-05-09T17:32:23.523Z,97507.66
2023-05-09T17:34:51.020Z,97494.44
2023-05-09T17:37:18.436Z,97495.47
2023-05-09T17:39:46.068Z,97504.56
2023-05-09T17:42:14.028Z,97501.28
2023-05-09T17:44:43.702Z,97505.09
2023-05-09T17:47:14.022Z,97509.88
2023-05-09T17:49:41.452Z,97521.41
2023-05-09T17:52:09.417Z,97534.78
2023-05-09T17:54:37.418Z,97546.34
2023-05-09T17:57:04.872Z,97537.69
2023-05-09T17:59:32.280Z,97531.91
2023-05-09T18:01:59.717Z,97532.75
2023-05-09T18:04:30.250Z,97535.00
2023-05-09T18:06:57.774Z,97530.22
2023-05-09T18:09:25.195Z,97543.69
2023-05-09T18:11:52.351Z,97549.16
2023-05-09T18:14:19.713Z,97550.44
2023-05-09T18:16:47.085Z,97556.22
2023-05-09T18:19:14.574Z,97551.13
2023-05-09T18:21:47.160Z,97556.38
2023-05-09T18:24:19.384Z,97571.19
2023-05-09T18:26:52.401Z,97577.81
2023-05-09T18:29:20.117Z,97581.34
2023-05-09T18:31:47.627Z,97584.34
2023-05-09T18:34:15.204Z,97594.09
2023-05-09T18:36:45.429Z,97598.03
2023-05-09T18:39:19.369Z,97598.75
2023-05-09T18:41:53.145Z,97603.97
2023-05-09T18:44:22.301Z,97596.22
2023-05-09T18:46:53.558Z,97593.03
2023-05-09T18:49:32.857Z,97585.28
2023-05-09T18:52:00.682Z,97583.22
2023-05-09T18:54:33.584Z,97583.16
2023-05-09T18:57:06.741Z,97584.66
2023-05-09T18:59:59.478Z,97579.44
2023-05-09T19:02:32.808Z,97582.03
2023-05-09T19:08:19.980Z,97573.84
2023-05-09T19:11:34.488Z,97577.44
2023-05-09T19:14:04.105Z,97588.03
2023-05-09T19:17:14.939Z,97590.84
2023-05-09T19:19:50.152Z,97593.25
2023-05-09T19:22:38.620Z,97599.03
2023-05-09T19:25:06.857Z,97591.47
2023-05-09T19:27:34.559Z,97585.28
2023-05-09T19:30:02.658Z,97593.47
2023-05-09T19:32:37.561Z,97588.56
2023-05-09T19:35:13.001Z,97595.03
2023-05-09T19:37:40.656Z,97587.97
2023-05-09T19:40:14.995Z,97589.03
2023-05-09T19:43:04.398Z,97595.94
2023-05-09T19:45:37.367Z,97600.34
2023-05-09T19:48:30.289Z,97598.59
2023-05-09T19:51:51.495Z,97598.00
2023-05-09T19:54:24.441Z,97593.72
2023-05-09T19:56:52.168Z,97599.72
2023-05-09T19:59:23.448Z,97592.75
2023-05-09T20:01:53.276Z,97596.03
2023-05-09T20:04:21.944Z,97589.53
2023-05-09T20:06:49.474Z,97582.78
2023-05-09T20:09:20.919Z,97586.13
2023-05-09T20:11:51.055Z,97591.56
2023-05-09T20:14:18.911Z,97591.59
2023-05-09T20:16:46.378Z,97597.34
2023-05-09T20:19:14.817Z,97595.72
2023-05-09T20:21:42.494Z,97586.00
2023-05-09T20:24:12.526Z,97585.91
2023-05-09T20:26:40.020Z,97586.94
2023-05-09T20:29:07.586Z,97589.31
2023-05-09T20:31:37.439Z,97582.38
2023-05-09T20:34:04.824Z,97592.31
2023-05-09T20:36:32.581Z,97595.09
2023-05-09T20:39:00.131Z,97591.00
2023-05-09T20:41:27.215Z,97583.88
2023-05-09T20:43:55.922Z,97582.50
2023-05-09T20:46:23.419Z,97585.38
2023-05-09T20:48:51.023Z,97581.38
2023-05-09T20:51:18.464Z,97581.78
2023-05-09T20:53:45.991Z,97587.91
2023-05-09T20:56:13.361Z,97585.88
2023-05-09T20:58:41.063Z,97583.16
2023-05-09T21:01:08.630Z,97582.69
2023-05-09T21:03:36.749Z,97587.06
2023-05-09T21:06:04.331Z,97583.28
2023-05-09T21:08:31.801Z,97585.41
2023-05-09T21:10:59.170Z,97584.97
2023-05-09T21:13:28.892Z,97580.28
2023-05-09T21:15:56.021Z,97579.59
2023-05-09T21:18:23.398Z,97572.59
2023-05-09T21:20:50.996Z,97576.63
2023-05-09T21:23:18.690Z,97576.84
2023-05-09T21:25:46.113Z,97566.69
2023-05-09T21:28:15.665Z,97563.59
2023-05-09T21:30:42.807Z,97557.75
2023-05-09T21:33:09.781Z,97562.56
2023-05-09T21:35:37.188Z,97558.78
2023-05-09T21:38:04.206Z,97550.06
2023-05-09T21:40:31.607Z,97559.97
2023-05-09T21:42:59.132Z,97561.53
2023-05-09T21:45:26.295Z,97558.59
2023-05-09T21:47:53.377Z,97559.81
2023-05-09T21:50:20.840Z,97552.16
2023-05-09T21:52:47.862Z,97551.50
2023-05-09T21:55:15.400Z,97553.41
2023-05-09T21:57:42.772Z,97555.47
2023-05-09T22:00:16.770Z,97554.16
2023-05-09T22:02:44.234Z,97555.47
2023-05-09T22:05:11.976Z,97552.16
2023-05-09T22:07:39.238Z,97554.50
2023-05-09T22:10:07.100Z,97549.84
2023-05-09T22:12:34.552Z,97559.44
2023-05-09T22:15:01.708Z,97553.03
2023-05-09T22:17:28.708Z,97553.47
2023-05-09T22:19:55.796Z,97545.38
2023-05-09T22:22:27.001Z,97556.84
2023-05-09T22:24:54.204Z,97552.00
2023-05-09T22:27:21.388Z,97554.09
2023-05-09T22:29:48.337Z,97547.25
2023-05-09T22:32:15.347Z,97554.69
2023-05-09T22:34:42.836Z,97551.44
2023-05-09T22:37:10.014Z,97552.88
2023-05-09T22:39:37.372Z,97547.03
2023-05-09T22:42:04.724Z,97546.72
2023-05-09T22:44:32.512Z,97549.34
2023-05-09T22:46:59.530Z,97553.75
2023-05-09T22:49:26.676Z,97551.31
2023-05-09T22:51:53.644Z,97550.31
2023-05-09T22:54:22.497Z,97557.22
2023-05-09T22:56:49.506Z,97557.56
2023-05-09T22:59:17.143Z,97564.41
2023-05-09T23:01:44.181Z,97556.44
2023-05-09T23:04:11.542Z,97551.50
2023-05-09T23:06:38.900Z,97563.50
2023-05-09T23:09:06.301Z,97572.44
2023-05-09T23:11:33.671Z,97573.69
2023-05-09T23:14:01.085Z,97565.41
2023-05-09T23:16:28.488Z,97554.25
2023-05-09T23:18:55.928Z,97559.91
2023-05-09T23:21:23.263Z,97564.16
2023-05-09T23:23:50.845Z,97568.59
2023-05-09T23:26:18.205Z,97557.75
2023-05-09T23:28:45.683Z,97555.88
2023-05-09T23:31:13.105Z,97566.16
2023-05-09T23:33:40.512Z,97559.06
2023-05-09T23:36:07.929Z,97556.00
2023-05-09T23:38:35.471Z,97555.88
2023-05-09T23:41:02.563Z,97557.22
2023-05-09T23:43:29.500Z,97556.19
2023-05-09T23:45:56.963Z,97555.09
2023-05-09T23:48:24.619Z,97557.91
2023-05-09T23:50:51.710Z,97563.44
2023-05-09T23:53:19.023Z,97558.94
2023-05-09T23:55:46.096Z,97560.94
2023-05-09T23:58:13.124Z,97553.19
